createdAt,value
2023-12-12T00:00:18.827Z,2.9
2023-12-12T00:00:50.457Z,2.9
2023-12-12T00:01:18.823Z,2.9
2023-12-12T00:01:54.904Z,4.1
2023-12-12T00:02:26.474Z,4.1
2023-12-12T00:02:49.623Z,4.1
2023-12-12T00:03:12.310Z,4.1
2023-12-12T00:03:48.309Z,2.9
2023-12-12T00:04:19.568Z,2.9
2023-12-12T00:04:51.119Z,2.9
2023-12-12T00:05:22.238Z,1.1
2023-12-12T00:05:54.873Z,1.1
2023-12-12T00:06:27.342Z,1.1
2023-12-12T00:06:54.460Z,1.1
2023-12-12T00:07:14.176Z,1.1
2023-12-12T00:07:47.390Z,1.1
2023-12-12T00:08:19.925Z,1.1
2023-12-12T00:08:51.399Z,1.1
2023-12-12T00:09:21.040Z,1.1
2023-12-12T00:09:55.292Z,2.9
2023-12-12T00:10:26.909Z,2.9
2023-12-12T00:10:49.019Z,2.9
2023-12-12T00:11:11.814Z,2.9
2023-12-12T00:11:46.474Z,2.9
2023-12-12T00:12:19.381Z,2.9
2023-12-12T00:12:52.417Z,1.8
2023-12-12T00:13:21.974Z,1.8
2023-12-12T00:13:54.836Z,1.8
2023-12-12T00:14:28.208Z,1.8
2023-12-12T00:14:49.491Z,1.8
2023-12-12T00:15:11.874Z,1.8
2023-12-12T00:15:48.249Z,1.8
2023-12-12T00:16:22.249Z,1.8
2023-12-12T00:16:51.157Z,3.6
2023-12-12T00:17:22.238Z,3.6
2023-12-12T00:17:56.352Z,3.6
2023-12-12T00:18:26.936Z,3.6
2023-12-12T00:18:49.796Z,3.6
2023-12-12T00:19:12.626Z,3.6
2023-12-12T00:19:49.626Z,3.6
2023-12-12T00:20:18.620Z,3.6
2023-12-12T00:20:50.518Z,1.8
2023-12-12T00:21:26.810Z,2.9
2023-12-12T00:21:55.778Z,2.9
2023-12-12T00:22:26.957Z,2.9
2023-12-12T00:22:49.791Z,2.9
2023-12-12T00:23:16.408Z,2.9
2023-12-12T00:23:46.548Z,2.9
2023-12-12T00:24:18.646Z,2.9
2023-12-12T00:24:51.029Z,2.9
2023-12-12T00:25:20.764Z,2.9
2023-12-12T00:25:55.043Z,2.9
2023-12-12T00:26:26.699Z,2.9
2023-12-12T00:26:49.556Z,2.9
2023-12-12T00:27:12.271Z,2.9
2023-12-12T00:27:47.451Z,1.1
2023-12-12T00:28:19.126Z,1.1
2023-12-12T00:28:50.529Z,1.1
2023-12-12T00:29:22.194Z,2.9
2023-12-12T00:29:58.825Z,2.9
2023-12-12T00:30:26.781Z,2.9
2023-12-12T00:30:49.186Z,2.9
2023-12-12T00:31:12.364Z,2.9
2023-12-12T00:31:49.277Z,2.9
2023-12-12T00:32:18.531Z,2.9
2023-12-12T00:32:51.851Z,2.9
2023-12-12T00:33:22.906Z,4.8
2023-12-12T00:33:55.430Z,4.8
2023-12-12T00:34:27.031Z,4.8
2023-12-12T00:34:49.341Z,4.8
2023-12-12T00:35:12.026Z,4.8
2023-12-12T00:35:47.149Z,5.9
2023-12-12T00:36:25.527Z,5.9
2023-12-12T00:36:47.935Z,5.9
2023-12-12T00:37:20.306Z,5.9
2023-12-12T00:37:54.503Z,5.9
2023-12-12T00:38:27.818Z,5.9
2023-12-12T00:38:49.300Z,5.9
2023-12-12T00:39:12.160Z,5.9
2023-12-12T00:39:46.387Z,5.9
2023-12-12T00:40:19.864Z,5.9
2023-12-12T00:40:50.642Z,4.1
2023-12-12T00:41:22.226Z,4.1
2023-12-12T00:41:54.393Z,4.1
2023-12-12T00:42:26.476Z,2.9
2023-12-12T00:42:49.677Z,2.9
2023-12-12T00:43:12.111Z,2.9
2023-12-12T00:43:46.518Z,2.9
2023-12-12T00:44:18.788Z,2.9
2023-12-12T00:44:50.647Z,1.1
2023-12-12T00:45:20.849Z,1.1
2023-12-12T00:45:54.610Z,1.1
2023-12-12T00:46:26.817Z,0
2023-12-12T00:46:50.535Z,0
2023-12-12T00:47:16.238Z,0
2023-12-12T00:47:47.001Z,0
2023-12-12T00:48:18.846Z,0
2023-12-12T00:48:50.846Z,0
2023-12-12T00:49:20.560Z,0
2023-12-12T00:49:54.932Z,0
2023-12-12T00:50:28.730Z,0
2023-12-12T00:50:49.347Z,0
2023-12-12T00:51:12.026Z,0
2023-12-12T00:51:46.438Z,0
2023-12-12T00:52:18.588Z,0
2023-12-12T00:52:50.265Z,0
2023-12-12T00:53:21.755Z,0
2023-12-12T00:53:54.415Z,0
2023-12-12T00:54:26.435Z,0
2023-12-12T00:54:51.271Z,0
2023-12-12T00:55:13.664Z,0
2023-12-12T00:55:50.825Z,0
2023-12-12T00:56:53.265Z,0
2023-12-12T00:57:23.537Z,0
2023-12-12T00:57:54.612Z,0
2023-12-12T00:58:27.177Z,0
2023-12-12T00:58:49.574Z,0
2023-12-12T00:59:12.267Z,0
2023-12-12T00:59:47.162Z,0
2023-12-12T01:00:18.638Z,0
2023-12-12T01:00:55.092Z,0
2023-12-12T01:01:20.656Z,0
2023-12-12T01:01:54.948Z,0
2023-12-12T01:02:26.521Z,0
2023-12-12T01:02:52.396Z,0
2023-12-12T01:03:12.385Z,0
2023-12-12T01:03:46.751Z,0
2023-12-12T01:04:24.283Z,0
2023-12-12T01:04:57.460Z,0
2023-12-12T01:05:22.977Z,0
2023-12-12T01:05:54.526Z,0
2023-12-12T01:06:29.303Z,0
2023-12-12T01:06:49.934Z,0
2023-12-12T01:07:12.539Z,0
2023-12-12T01:07:47.908Z,0
2023-12-12T01:08:19.385Z,0
2023-12-12T01:08:52.202Z,0
2023-12-12T01:09:22.450Z,0
2023-12-12T01:09:56.008Z,0
2023-12-12T01:10:30.897Z,0
2023-12-12T01:10:50.509Z,0
2023-12-12T01:11:15.485Z,0
2023-12-12T01:11:47.303Z,0
2023-12-12T01:12:19.147Z,0
2023-12-12T01:12:50.934Z,0
2023-12-12T01:13:22.012Z,0
2023-12-12T01:13:54.443Z,0
2023-12-12T01:14:49.505Z,0
2023-12-12T01:15:12.372Z,0
2023-12-12T01:15:48.319Z,0
2023-12-12T01:16:22.593Z,0
2023-12-12T01:16:45.127Z,0
2023-12-12T01:17:20.252Z,0
2023-12-12T01:17:54.374Z,0
2023-12-12T01:18:28.765Z,0
2023-12-12T01:18:50.001Z,0
2023-12-12T01:19:12.036Z,0
2023-12-12T01:19:46.743Z,0
2023-12-12T01:20:18.830Z,0
2023-12-12T01:20:50.544Z,0
2023-12-12T01:21:24.650Z,0
2023-12-12T01:21:54.470Z,0
2023-12-12T01:22:26.292Z,0
2023-12-12T01:22:49.229Z,0
2023-12-12T01:23:11.510Z,0
2023-12-12T01:23:46.412Z,0
2023-12-12T01:24:18.793Z,0
2023-12-12T01:24:52.767Z,0
2023-12-12T01:25:20.295Z,0
2023-12-12T01:25:54.774Z,0
2023-12-12T01:26:23.417Z,0
2023-12-12T01:26:47.175Z,0
2023-12-12T01:27:08.816Z,0
2023-12-12T01:27:47.242Z,0
2023-12-12T01:28:19.034Z,0
2023-12-12T01:28:55.203Z,0
2023-12-12T01:29:20.281Z,0
2023-12-12T01:30:01.734Z,0
2023-12-12T01:30:26.804Z,0
2023-12-12T01:30:49.442Z,0
2023-12-12T01:31:48.341Z,0
2023-12-12T01:32:19.271Z,0
2023-12-12T01:32:50.477Z,0
2023-12-12T01:33:20.845Z,0
2023-12-12T01:33:55.006Z,0
2023-12-12T01:34:28.267Z,0
2023-12-12T01:34:53.551Z,0
2023-12-12T01:35:14.812Z,0
2023-12-12T01:35:48.094Z,0
2023-12-12T01:36:18.544Z,0
2023-12-12T01:36:51.250Z,0
2023-12-12T01:37:23.093Z,0
2023-12-12T01:37:56.290Z,0
2023-12-12T01:38:27.024Z,0
2023-12-12T01:38:53.674Z,0
2023-12-12T01:39:13.523Z,0
2023-12-12T01:39:47.070Z,0
2023-12-12T01:40:19.860Z,0
2023-12-12T01:40:53.519Z,0
2023-12-12T01:41:24.219Z,0
2023-12-12T01:41:54.825Z,0
2023-12-12T01:42:26.894Z,0
2023-12-12T01:42:49.605Z,0
2023-12-12T01:43:12.028Z,0
2023-12-12T01:43:50.889Z,0
2023-12-12T01:44:18.789Z,0
2023-12-12T01:44:50.856Z,0
2023-12-12T01:45:20.795Z,0
2023-12-12T01:45:55.817Z,0
2023-12-12T01:46:26.712Z,0
2023-12-12T01:46:49.692Z,0
2023-12-12T01:47:12.147Z,0
2023-12-12T01:47:48.563Z,0
2023-12-12T01:48:19.063Z,0
2023-12-12T01:48:50.956Z,0
2023-12-12T01:49:22.581Z,0
2023-12-12T01:49:54.919Z,0
2023-12-12T01:50:28.396Z,0
2023-12-12T01:50:52.471Z,0
2023-12-12T01:51:17.984Z,0
2023-12-12T01:51:46.936Z,0
2023-12-12T01:52:19.942Z,0
2023-12-12T01:52:50.867Z,0
2023-12-12T01:53:20.387Z,0
2023-12-12T01:53:59.738Z,0
2023-12-12T01:54:26.398Z,0
2023-12-12T01:55:13.926Z,0
2023-12-12T01:55:48.354Z,0
2023-12-12T01:56:18.867Z,0
2023-12-12T01:56:51.977Z,0
2023-12-12T01:57:22.875Z,0
2023-12-12T01:57:54.401Z,0
2023-12-12T01:58:27.828Z,0
2023-12-12T01:58:49.123Z,0
2023-12-12T01:59:16.269Z,0
2023-12-12T01:59:49.198Z,0
2023-12-12T02:00:20.137Z,0
2023-12-12T02:00:50.606Z,0
2023-12-12T02:01:20.388Z,0
2023-12-12T02:01:55.031Z,0
2023-12-12T02:02:32.041Z,0
2023-12-12T02:02:49.402Z,0
2023-12-12T02:03:11.739Z,0
2023-12-12T02:03:47.062Z,0
2023-12-12T02:04:18.593Z,0
2023-12-12T02:04:50.863Z,0
2023-12-12T02:05:21.147Z,0
2023-12-12T02:05:56.182Z,0
2023-12-12T02:06:27.888Z,0
2023-12-12T02:06:49.828Z,0
2023-12-12T02:07:12.577Z,0
2023-12-12T02:07:48.117Z,0
2023-12-12T02:08:20.465Z,0
2023-12-12T02:08:51.968Z,0
2023-12-12T02:09:25.372Z,0
2023-12-12T02:09:56.127Z,0
2023-12-12T02:10:30.826Z,0
2023-12-12T02:10:49.108Z,0
2023-12-12T02:11:15.952Z,0
2023-12-12T02:11:47.181Z,0
2023-12-12T02:12:18.704Z,0
2023-12-12T02:12:50.523Z,0
2023-12-12T02:13:20.574Z,0
2023-12-12T02:13:59.969Z,0
2023-12-12T02:14:29.407Z,0
2023-12-12T02:14:52.328Z,0
2023-12-12T02:15:16.867Z,0
2023-12-12T02:15:48.322Z,0
2023-12-12T02:16:18.540Z,0
2023-12-12T02:16:51.918Z,0
2023-12-12T02:17:21.048Z,0
2023-12-12T02:17:59.335Z,0
2023-12-12T02:18:26.973Z,0
2023-12-12T02:18:50.709Z,0
2023-12-12T02:19:12.816Z,0
2023-12-12T02:19:50.093Z,0
2023-12-12T02:20:18.331Z,0
2023-12-12T02:20:50.677Z,0
2023-12-12T02:21:22.599Z,0
2023-12-12T02:21:54.555Z,0
2023-12-12T02:22:28.282Z,0
2023-12-12T02:22:49.725Z,0
2023-12-12T02:23:15.891Z,0
2023-12-12T02:23:46.742Z,0
2023-12-12T02:24:20.102Z,0
2023-12-12T02:24:52.482Z,0
2023-12-12T02:25:21.221Z,0
2023-12-12T02:25:54.849Z,0
2023-12-12T02:26:26.711Z,0
2023-12-12T02:26:49.427Z,0
2023-12-12T02:27:12.012Z,0
2023-12-12T02:27:47.969Z,0
2023-12-12T02:28:19.000Z,0
2023-12-12T02:28:51.872Z,0
2023-12-12T02:29:26.699Z,0
2023-12-12T02:30:03.998Z,0
2023-12-12T02:30:21.311Z,0
2023-12-12T02:30:53.490Z,0
2023-12-12T02:31:30.607Z,0
2023-12-12T02:31:53.594Z,0
2023-12-12T02:32:15.971Z,0
2023-12-12T02:32:50.878Z,0
2023-12-12T02:33:20.534Z,0
2023-12-12T02:33:55.239Z,0
2023-12-12T02:34:28.724Z,1.8
2023-12-12T02:34:52.683Z,1.8
2023-12-12T02:35:14.623Z,1.8
2023-12-12T02:35:47.949Z,1.8
2023-12-12T02:36:18.871Z,1.8
2023-12-12T02:36:51.089Z,1.8
2023-12-12T02:37:21.223Z,1.8
2023-12-12T02:37:56.027Z,1.8
2023-12-12T02:38:27.489Z,1.8
2023-12-12T02:38:54.205Z,1.8
2023-12-12T02:39:17.521Z,1.8
2023-12-12T02:39:50.092Z,1.8
2023-12-12T02:40:19.282Z,1.8
2023-12-12T02:40:51.223Z,1.8
2023-12-12T02:41:22.046Z,1.8
2023-12-12T02:41:54.994Z,1.8
2023-12-12T02:42:27.500Z,1.8
2023-12-12T02:42:52.310Z,1.8
2023-12-12T02:43:17.530Z,1.8
2023-12-12T02:43:50.906Z,1.8
2023-12-12T02:44:19.551Z,1.8
2023-12-12T02:44:52.980Z,0
2023-12-12T02:45:23.830Z,0
2023-12-12T02:45:54.942Z,0
2023-12-12T02:46:26.777Z,0
2023-12-12T02:46:49.457Z,0
2023-12-12T02:47:11.928Z,0
2023-12-12T02:47:46.546Z,0
2023-12-12T02:48:18.688Z,0
2023-12-12T02:48:50.807Z,0
2023-12-12T02:49:22.473Z,0
2023-12-12T02:49:56.173Z,0
2023-12-12T02:50:26.357Z,0
2023-12-12T02:50:50.440Z,0
2023-12-12T02:51:46.918Z,0
2023-12-12T02:52:20.211Z,0
2023-12-12T02:52:50.864Z,0
2023-12-12T02:53:21.688Z,0
2023-12-12T02:53:54.788Z,0
2023-12-12T02:54:27.178Z,0
2023-12-12T02:54:51.210Z,0
2023-12-12T02:55:13.622Z,0
2023-12-12T02:55:46.784Z,0
2023-12-12T02:56:18.427Z,0
2023-12-12T02:56:52.001Z,0
2023-12-12T02:57:27.111Z,0
2023-12-12T02:57:53.596Z,0
2023-12-12T02:58:20.251Z,0
2023-12-12T02:58:53.374Z,0
2023-12-12T02:59:32.635Z,0
2023-12-12T02:59:57.684Z,0
2023-12-12T03:00:16.182Z,0
2023-12-12T03:00:55.456Z,0
2023-12-12T03:01:25.632Z,0
2023-12-12T03:01:57.537Z,0
2023-12-12T03:02:27.676Z,0
2023-12-12T03:02:50.903Z,0
2023-12-12T03:03:17.315Z,0
2023-12-12T03:03:47.512Z,0
2023-12-12T03:04:19.039Z,0
2023-12-12T03:05:22.454Z,0
2023-12-12T03:05:55.314Z,0
2023-12-12T03:06:26.978Z,0
2023-12-12T03:06:49.569Z,0
2023-12-12T03:07:12.706Z,0
2023-12-12T03:07:47.767Z,0
2023-12-12T03:08:18.588Z,0
2023-12-12T03:08:52.855Z,0
2023-12-12T03:09:23.561Z,0
2023-12-12T03:09:57.446Z,0
2023-12-12T03:10:31.500Z,0
2023-12-12T03:10:49.774Z,0
2023-12-12T03:11:12.296Z,0
2023-12-12T03:11:46.587Z,0
2023-12-12T03:12:18.729Z,0
2023-12-12T03:12:51.195Z,0
2023-12-12T03:13:20.852Z,0
2023-12-12T03:13:54.879Z,0
2023-12-12T03:14:29.086Z,0
2023-12-12T03:14:53.788Z,0
2023-12-12T03:15:13.601Z,0
2023-12-12T03:15:47.853Z,0
2023-12-12T03:16:18.855Z,0
2023-12-12T03:16:50.713Z,0
2023-12-12T03:17:21.772Z,0
2023-12-12T03:17:55.082Z,0
2023-12-12T03:18:28.348Z,0
2023-12-12T03:18:49.982Z,0
2023-12-12T03:19:12.817Z,0
2023-12-12T03:19:48.381Z,0
2023-12-12T03:20:19.893Z,0
2023-12-12T03:20:55.279Z,0
2023-12-12T03:21:17.899Z,0
2023-12-12T03:21:54.941Z,0
2023-12-12T03:22:26.793Z,0
2023-12-12T03:22:49.170Z,0
2023-12-12T03:23:11.454Z,0
2023-12-12T03:23:46.494Z,0
2023-12-12T03:24:19.773Z,0
2023-12-12T03:24:51.804Z,0
2023-12-12T03:25:20.699Z,0
2023-12-12T03:25:55.680Z,0
2023-12-12T03:26:26.374Z,0
2023-12-12T03:26:49.644Z,0
2023-12-12T03:27:12.420Z,0
2023-12-12T03:27:46.527Z,0
2023-12-12T03:28:18.377Z,0
2023-12-12T03:28:50.198Z,0
2023-12-12T03:29:20.722Z,0
2023-12-12T03:29:55.763Z,0
2023-12-12T03:30:49.173Z,0
2023-12-12T03:31:11.326Z,0
2023-12-12T03:31:46.741Z,0
2023-12-12T03:32:22.821Z,0
2023-12-12T03:32:50.560Z,0
2023-12-12T03:33:20.822Z,0
2023-12-12T03:33:54.555Z,0
2023-12-12T03:34:26.419Z,0
2023-12-12T03:34:49.763Z,0
2023-12-12T03:35:13.057Z,0
2023-12-12T03:35:49.316Z,0
2023-12-12T03:36:18.536Z,0
2023-12-12T03:36:52.760Z,0
2023-12-12T03:37:22.735Z,0
2023-12-12T03:37:55.889Z,0
2023-12-12T03:38:26.342Z,0
2023-12-12T03:38:49.352Z,0
2023-12-12T03:39:12.972Z,0
2023-12-12T03:39:47.673Z,0
2023-12-12T03:40:18.586Z,0
2023-12-12T03:40:50.816Z,0
2023-12-12T03:41:22.231Z,0
2023-12-12T03:41:54.744Z,0
2023-12-12T03:42:21.743Z,0
2023-12-12T03:42:53.700Z,0
2023-12-12T03:43:30.466Z,0
2023-12-12T03:43:53.541Z,0
2023-12-12T03:44:16.446Z,0
2023-12-12T03:44:51.640Z,0
2023-12-12T03:45:22.286Z,0
2023-12-12T03:45:54.745Z,0
2023-12-12T03:46:26.443Z,0
2023-12-12T03:46:49.954Z,0
2023-12-12T03:47:12.765Z,0
2023-12-12T03:47:46.798Z,0
2023-12-12T03:48:19.315Z,0
2023-12-12T03:48:50.471Z,0
2023-12-12T03:49:27.057Z,0
2023-12-12T03:49:54.410Z,0
2023-12-12T03:50:26.825Z,0
2023-12-12T03:50:49.910Z,0
2023-12-12T03:51:12.139Z,0
2023-12-12T03:51:46.218Z,0
2023-12-12T03:52:18.381Z,0
2023-12-12T03:52:51.058Z,0
2023-12-12T03:53:20.323Z,0
2023-12-12T03:53:54.462Z,0
2023-12-12T03:54:27.703Z,0
2023-12-12T03:54:50.435Z,0
2023-12-12T03:55:12.966Z,0
2023-12-12T03:55:47.846Z,0
2023-12-12T03:56:12.558Z,0
2023-12-12T03:56:50.942Z,0
2023-12-12T03:57:54.785Z,0
2023-12-12T03:58:26.754Z,0
2023-12-12T03:58:50.425Z,0
2023-12-12T03:59:11.692Z,0
2023-12-12T04:00:18.988Z,0
2023-12-12T04:00:54.405Z,0
2023-12-12T04:01:21.648Z,0
2023-12-12T04:01:57.490Z,0
2023-12-12T04:02:27.992Z,0
2023-12-12T04:02:49.780Z,0
2023-12-12T04:03:11.803Z,0
2023-12-12T04:03:47.145Z,0
2023-12-12T04:04:20.031Z,0
2023-12-12T04:04:55.727Z,0
2023-12-12T04:05:22.956Z,0
2023-12-12T04:05:56.093Z,0
2023-12-12T04:06:26.579Z,0
2023-12-12T04:06:49.501Z,0
2023-12-12T04:07:47.950Z,0
2023-12-12T04:08:18.583Z,0
2023-12-12T04:08:50.574Z,0
2023-12-12T04:09:21.087Z,0
2023-12-12T04:09:55.211Z,0
2023-12-12T04:10:26.622Z,0
2023-12-12T04:10:49.634Z,0
2023-12-12T04:11:13.595Z,0
2023-12-12T04:11:46.654Z,0
2023-12-12T04:12:18.892Z,0
2023-12-12T04:13:25.007Z,0
2023-12-12T04:13:54.606Z,0
2023-12-12T04:14:28.043Z,0
2023-12-12T04:14:49.920Z,0
2023-12-12T04:15:16.880Z,0
2023-12-12T04:15:47.710Z,0
2023-12-12T04:16:19.926Z,0
2023-12-12T04:16:50.544Z,0
2023-12-12T04:17:20.577Z,0
2023-12-12T04:17:54.559Z,0
2023-12-12T04:18:27.161Z,0
2023-12-12T04:18:49.589Z,0
2023-12-12T04:19:12.223Z,0
2023-12-12T04:19:50.299Z,0
2023-12-12T04:20:12.698Z,0
2023-12-12T04:20:50.549Z,0
2023-12-12T04:21:20.703Z,0
2023-12-12T04:21:54.505Z,0
2023-12-12T04:22:26.271Z,0
2023-12-12T04:22:49.090Z,0
2023-12-12T04:23:11.746Z,0
2023-12-12T04:23:46.236Z,0
2023-12-12T04:24:18.621Z,0
2023-12-12T04:24:51.868Z,0
2023-12-12T04:25:20.623Z,0
2023-12-12T04:25:55.882Z,0
2023-12-12T04:26:26.454Z,0
2023-12-12T04:26:49.193Z,0
2023-12-12T04:27:11.869Z,0
2023-12-12T04:27:46.747Z,0
2023-12-12T04:28:18.461Z,0
2023-12-12T04:28:50.819Z,0
2023-12-12T04:29:20.394Z,0
2023-12-12T04:29:54.349Z,0
2023-12-12T04:30:26.298Z,0
2023-12-12T04:30:49.231Z,0
2023-12-12T04:31:11.682Z,0
2023-12-12T04:31:47.748Z,0
2023-12-12T04:32:18.352Z,0
2023-12-12T04:33:20.460Z,0
2023-12-12T04:33:54.836Z,0
2023-12-12T04:34:27.649Z,0
2023-12-12T04:34:50.554Z,0
2023-12-12T04:35:12.978Z,0
2023-12-12T04:35:47.727Z,0
2023-12-12T04:36:19.881Z,0
2023-12-12T04:36:51.724Z,0
2023-12-12T04:37:20.399Z,0
2023-12-12T04:37:54.441Z,0
2023-12-12T04:38:26.350Z,0
2023-12-12T04:38:49.139Z,0
2023-12-12T04:39:12.431Z,0
2023-12-12T04:39:46.476Z,0
2023-12-12T04:40:18.867Z,0
2023-12-12T04:40:50.249Z,0
2023-12-12T04:41:20.858Z,0
2023-12-12T04:41:54.725Z,0
2023-12-12T04:42:26.591Z,0
2023-12-12T04:42:49.339Z,0
2023-12-12T04:43:13.342Z,0
2023-12-12T04:43:46.257Z,0
2023-12-12T04:44:18.557Z,0
2023-12-12T04:44:50.407Z,0
2023-12-12T04:45:21.893Z,0
2023-12-12T04:45:55.660Z,0
2023-12-12T04:46:26.396Z,0
2023-12-12T04:46:49.536Z,0
2023-12-12T04:47:11.395Z,0
2023-12-12T04:47:46.785Z,0
2023-12-12T04:48:18.969Z,0
2023-12-12T04:48:54.870Z,0
2023-12-12T04:49:20.368Z,0
2023-12-12T04:49:54.793Z,0
2023-12-12T04:50:26.372Z,0
2023-12-12T04:50:49.037Z,0
2023-12-12T04:51:11.820Z,0
2023-12-12T04:51:46.508Z,0
2023-12-12T04:52:18.641Z,0
2023-12-12T04:52:51.603Z,0
2023-12-12T04:53:20.805Z,0
2023-12-12T04:53:54.425Z,0
2023-12-12T04:54:27.833Z,0
2023-12-12T04:54:49.357Z,0
2023-12-12T04:55:11.854Z,0
2023-12-12T04:55:46.443Z,0
2023-12-12T04:56:19.826Z,0
2023-12-12T04:56:50.355Z,0
2023-12-12T04:57:20.688Z,0
2023-12-12T04:57:54.781Z,0
2023-12-12T04:58:27.735Z,0
2023-12-12T04:58:50.348Z,0
2023-12-12T04:59:13.093Z,0
2023-12-12T04:59:46.364Z,0
2023-12-12T05:00:18.843Z,0
2023-12-12T05:00:50.717Z,0
2023-12-12T05:01:20.781Z,0
2023-12-12T05:01:55.902Z,0
2023-12-12T05:02:27.688Z,0
2023-12-12T05:02:49.257Z,0
2023-12-12T05:03:11.603Z,0
2023-12-12T05:03:46.451Z,0
2023-12-12T05:04:18.365Z,0
2023-12-12T05:04:50.689Z,0
2023-12-12T05:05:20.980Z,0
2023-12-12T05:05:55.931Z,0
2023-12-12T05:06:27.437Z,0
2023-12-12T05:06:49.636Z,0
2023-12-12T05:07:12.127Z,0
2023-12-12T05:07:46.597Z,0
2023-12-12T05:08:18.378Z,0
2023-12-12T05:08:50.203Z,0
2023-12-12T05:09:20.431Z,0
2023-12-12T05:09:55.606Z,0
2023-12-12T05:10:49.219Z,0
2023-12-12T05:11:13.046Z,0
2023-12-12T05:11:46.408Z,0
2023-12-12T05:12:18.384Z,0
2023-12-12T05:12:50.203Z,0
2023-12-12T05:13:20.812Z,0
2023-12-12T05:13:54.580Z,0
2023-12-12T05:14:26.752Z,0
2023-12-12T05:14:51.105Z,0
2023-12-12T05:15:12.129Z,0
2023-12-12T05:15:46.520Z,0
2023-12-12T05:16:28.922Z,0
2023-12-12T05:16:58.135Z,0
2023-12-12T05:17:20.741Z,0
2023-12-12T05:17:55.868Z,0
2023-12-12T05:18:26.649Z,0
2023-12-12T05:18:49.917Z,0
2023-12-12T05:19:30.424Z,0
2023-12-12T05:19:57.730Z,0
2023-12-12T05:20:16.150Z,0
2023-12-12T05:20:50.449Z,0
2023-12-12T05:21:22.633Z,0
2023-12-12T05:21:54.374Z,0
2023-12-12T05:22:26.408Z,0
2023-12-12T05:22:49.556Z,0
2023-12-12T05:23:13.396Z,0
2023-12-12T05:23:46.314Z,0
2023-12-12T05:24:18.763Z,0
2023-12-12T05:24:51.604Z,0
2023-12-12T05:25:23.520Z,0
2023-12-12T05:25:58.727Z,0
2023-12-12T05:26:26.292Z,0
2023-12-12T05:26:50.557Z,0
2023-12-12T05:27:11.529Z,0
2023-12-12T05:27:46.144Z,0
2023-12-12T05:28:20.177Z,0
2023-12-12T05:28:50.455Z,0
2023-12-12T05:29:25.230Z,0
2023-12-12T05:29:55.683Z,0
2023-12-12T05:30:26.523Z,0
2023-12-12T05:30:52.392Z,0
2023-12-12T05:31:30.444Z,0
2023-12-12T05:31:53.743Z,0
2023-12-12T05:32:16.084Z,0
2023-12-12T05:32:50.431Z,0
2023-12-12T05:33:20.554Z,0
2023-12-12T05:33:54.630Z,0
2023-12-12T05:34:26.750Z,0
2023-12-12T05:34:50.833Z,0
2023-12-12T05:35:11.946Z,0
2023-12-12T05:35:48.105Z,0
2023-12-12T05:36:19.840Z,0
2023-12-12T05:36:50.464Z,0
2023-12-12T05:37:20.409Z,0
2023-12-12T05:37:55.753Z,0
2023-12-12T05:38:27.689Z,0
2023-12-12T05:38:50.187Z,0
2023-12-12T05:39:12.652Z,0
2023-12-12T05:39:47.177Z,0
2023-12-12T05:40:18.719Z,0
2023-12-12T05:40:52.282Z,0
2023-12-12T05:41:26.608Z,0
2023-12-12T05:41:54.454Z,0
2023-12-12T05:42:26.663Z,0
2023-12-12T05:42:51.000Z,0
2023-12-12T05:43:13.468Z,0
2023-12-12T05:43:46.719Z,0
2023-12-12T05:44:18.476Z,0
2023-12-12T05:44:52.565Z,0
2023-12-12T05:45:22.402Z,0
2023-12-12T05:45:58.790Z,0
2023-12-12T05:46:30.802Z,0
2023-12-12T05:46:49.223Z,0
2023-12-12T05:47:13.003Z,0
2023-12-12T05:47:46.266Z,0
2023-12-12T05:48:18.674Z,0
2023-12-12T05:48:50.817Z,0
2023-12-12T05:49:20.538Z,0
2023-12-12T05:49:55.773Z,0
2023-12-12T05:50:26.221Z,0
2023-12-12T05:50:49.230Z,0
2023-12-12T05:51:13.569Z,0
2023-12-12T05:51:46.688Z,0
2023-12-12T05:52:18.527Z,0
2023-12-12T05:52:44.972Z,0
2023-12-12T05:53:20.850Z,0
2023-12-12T05:53:55.287Z,0
2023-12-12T05:54:31.711Z,0
2023-12-12T05:54:50.507Z,0
2023-12-12T05:55:12.378Z,0
2023-12-12T05:55:48.019Z,0
2023-12-12T05:56:24.107Z,0
2023-12-12T05:56:50.856Z,0
2023-12-12T05:57:20.374Z,0
2023-12-12T05:57:55.901Z,0
2023-12-12T05:58:27.025Z,0
2023-12-12T05:58:49.873Z,0
2023-12-12T05:59:12.703Z,0
2023-12-12T05:59:46.812Z,0
2023-12-12T06:00:20.139Z,0
2023-12-12T06:00:55.074Z,0
2023-12-12T06:01:17.779Z,0
2023-12-12T06:01:54.574Z,0
2023-12-12T06:02:26.300Z,0
2023-12-12T06:02:48.936Z,0
2023-12-12T06:03:11.792Z,0
2023-12-12T06:03:46.598Z,0
2023-12-12T06:04:18.736Z,0
2023-12-12T06:04:50.524Z,0
2023-12-12T06:05:21.150Z,0
2023-12-12T06:05:55.626Z,0
2023-12-12T06:06:30.737Z,0
2023-12-12T06:06:51.017Z,0
2023-12-12T06:07:13.028Z,0
2023-12-12T06:07:46.787Z,0
2023-12-12T06:08:18.207Z,0
2023-12-12T06:08:50.409Z,0
2023-12-12T06:09:20.296Z,0
2023-12-12T06:09:55.767Z,0
2023-12-12T06:10:30.751Z,0
2023-12-12T06:10:49.108Z,0
2023-12-12T06:11:12.888Z,0
2023-12-12T06:11:47.715Z,0
2023-12-12T06:12:18.650Z,0
2023-12-12T06:12:50.311Z,0
2023-12-12T06:13:20.850Z,0
2023-12-12T06:13:54.582Z,0
2023-12-12T06:14:27.911Z,0
2023-12-12T06:14:50.194Z,0
2023-12-12T06:15:17.071Z,0
2023-12-12T06:15:50.719Z,0
2023-12-12T06:16:18.991Z,0
2023-12-12T06:16:50.377Z,0
2023-12-12T06:17:16.870Z,0
2023-12-12T06:17:55.311Z,0
2023-12-12T06:18:26.593Z,0
2023-12-12T06:18:49.314Z,0
2023-12-12T06:19:11.498Z,0
2023-12-12T06:19:47.166Z,0
2023-12-12T06:20:18.399Z,0
2023-12-12T06:20:53.625Z,0
2023-12-12T06:21:25.274Z,0
2023-12-12T06:21:56.108Z,0
2023-12-12T06:22:26.279Z,0
2023-12-12T06:22:48.759Z,0
2023-12-12T06:23:11.892Z,0
2023-12-12T06:23:47.913Z,0
2023-12-12T06:24:18.831Z,0
2023-12-12T06:24:50.375Z,0
2023-12-12T06:25:20.967Z,0
2023-12-12T06:25:56.367Z,0
2023-12-12T06:26:31.408Z,0
2023-12-12T06:26:53.847Z,0
2023-12-12T06:27:31.137Z,0
2023-12-12T06:27:53.628Z,0
2023-12-12T06:28:15.728Z,0
2023-12-12T06:28:51.597Z,0
2023-12-12T06:29:20.262Z,0
2023-12-12T06:29:55.565Z,0
2023-12-12T06:30:28.224Z,0
2023-12-12T06:30:54.249Z,0
2023-12-12T06:31:15.757Z,0
2023-12-12T06:31:47.898Z,0
2023-12-12T06:32:18.622Z,0
2023-12-12T06:32:55.021Z,0
2023-12-12T06:33:23.825Z,0
2023-12-12T06:33:54.709Z,0
2023-12-12T06:34:26.675Z,0
2023-12-12T06:34:49.049Z,0
2023-12-12T06:35:11.703Z,0
2023-12-12T06:35:48.604Z,0
2023-12-12T06:36:18.581Z,0
2023-12-12T06:36:51.593Z,0
2023-12-12T06:37:20.530Z,0
2023-12-12T06:37:54.630Z,0
2023-12-12T06:38:26.265Z,0
2023-12-12T06:38:49.653Z,0
2023-12-12T06:39:12.025Z,0
2023-12-12T06:39:46.329Z,0
2023-12-12T06:40:18.187Z,0
2023-12-12T06:40:54.657Z,0
2023-12-12T06:41:20.473Z,0
2023-12-12T06:41:55.727Z,0
2023-12-12T06:42:27.692Z,0
2023-12-12T06:42:49.507Z,0
2023-12-12T06:43:11.919Z,0
2023-12-12T06:43:46.392Z,0
2023-12-12T06:44:18.429Z,0
2023-12-12T06:44:50.346Z,0
2023-12-12T06:45:20.630Z,0
2023-12-12T06:45:54.457Z,0
2023-12-12T06:46:26.278Z,0
2023-12-12T06:46:50.518Z,0
2023-12-12T06:47:12.927Z,0
2023-12-12T06:47:46.359Z,0
2023-12-12T06:48:20.628Z,0
2023-12-12T06:48:50.352Z,0
2023-12-12T06:49:21.787Z,0
2023-12-12T06:49:54.628Z,0
2023-12-12T06:50:26.503Z,0
2023-12-12T06:50:49.709Z,0
2023-12-12T06:51:13.113Z,0
2023-12-12T06:51:47.703Z,0
2023-12-12T06:52:18.259Z,0
2023-12-12T06:52:50.436Z,0
2023-12-12T06:53:22.323Z,0
2023-12-12T06:53:54.328Z,0
2023-12-12T06:54:26.191Z,0
2023-12-12T06:54:49.231Z,0
2023-12-12T06:55:11.466Z,0
2023-12-12T06:55:50.685Z,0
2023-12-12T06:56:18.351Z,0
2023-12-12T06:56:51.797Z,0
2023-12-12T06:57:20.437Z,0
2023-12-12T06:57:55.724Z,0
2023-12-12T06:58:26.386Z,0
2023-12-12T06:58:49.354Z,0
2023-12-12T06:59:11.862Z,0
2023-12-12T06:59:46.730Z,0
2023-12-12T07:00:18.303Z,0
2023-12-12T07:00:50.497Z,0
2023-12-12T07:01:24.781Z,0
2023-12-12T07:01:54.381Z,0
2023-12-12T07:02:26.330Z,0
2023-12-12T07:02:52.514Z,0
2023-12-12T07:03:11.811Z,0
2023-12-12T07:03:47.755Z,0
2023-12-12T07:04:22.813Z,0
2023-12-12T07:04:52.568Z,0
2023-12-12T07:05:22.379Z,0
2023-12-12T07:05:55.358Z,0
2023-12-12T07:06:26.477Z,0
2023-12-12T07:07:16.497Z,0
2023-12-12T07:07:46.724Z,0
2023-12-12T07:08:18.193Z,0
2023-12-12T07:08:52.013Z,0
2023-12-12T07:09:20.914Z,0
2023-12-12T07:09:59.476Z,0
2023-12-12T07:10:26.290Z,0
2023-12-12T07:10:49.338Z,0
2023-12-12T07:11:12.868Z,0
2023-12-12T07:11:47.764Z,0
2023-12-12T07:12:19.675Z,0
2023-12-12T07:12:50.286Z,0
2023-12-12T07:13:22.408Z,0
2023-12-12T07:13:54.685Z,0
2023-12-12T07:14:26.349Z,0
2023-12-12T07:14:49.396Z,0
2023-12-12T07:15:11.775Z,0
2023-12-12T07:15:47.651Z,0
2023-12-12T07:16:18.637Z,0
2023-12-12T07:16:51.590Z,0
2023-12-12T07:17:20.544Z,0
2023-12-12T07:17:55.667Z,0
2023-12-12T07:18:27.706Z,0
2023-12-12T07:18:50.617Z,0
2023-12-12T07:19:13.206Z,0
2023-12-12T07:19:46.614Z,0
2023-12-12T07:20:18.348Z,0
2023-12-12T07:20:50.727Z,0
2023-12-12T07:21:22.742Z,0
2023-12-12T07:21:55.710Z,0
2023-12-12T07:22:20.677Z,0
2023-12-12T07:22:52.233Z,0
2023-12-12T07:23:25.080Z,0
2023-12-12T07:23:49.329Z,0
2023-12-12T07:24:12.697Z,0
2023-12-12T07:24:51.095Z,0
2023-12-12T07:25:21.167Z,0
2023-12-12T07:25:56.356Z,0
2023-12-12T07:26:28.077Z,0